PWSweather.com
Personal Weather Stations
Station Observations
MART18
Seleziona Stato..., MartinsicuroIT italia

Seleziona Stato...MartinsicuroIT italia

Lat: 42.885169, Lon: 13.918447300000025

Elevation: 3

Station Type: Davis vantage vp2

Latest ConditionsUpdated 6:48:32 PM GMT+01:01 Tuesday, Aug 14, 2018
Currently Today's Max Today's Min Today's Average
Temperature 72.3°F22.4°C 85.3°F29.6°C 68.4°F20.2°C 76.7°F24.8°C
Dew Point 64.8°F18.2°C 73.4°F23.0°C 63.1°F17.3°C 66.9°F19.4°C
Winds 4.9 mph SW7.9 kmh SW 14.1 mph -22.7 kmh - - 3.0 mph 4.8 kmh
Wind Gusts 8.1 mph13.0 kmh 37.0 mph59.5 kmh - -
Humidity 77% 84% 63% 72%
Pressure 29.85 in1010.8 mb 29.89 in1012.2 mb 29.81 in1009.5 mb -
Precipitation - 0.81 in20.6 mm - -
Hour Temp Dew Point Humidity Winds Wind Gusts Pressure Precip Precip Rate Daily Precip Total
06:48 PM 72.3°F22.4°C 64.8°F18.2°C 77% 4.9 mph SW7.9 kmh SW 8.1 mph13.0 kmh 29.85 in1010.8 mb 0.00 in0.0 mm 0.00 in0.0 mm 0.81 in20.6 mm
06:43 PM 72.3°F22.4°C 64.8°F18.2°C 77% 4.0 mph SW6.4 kmh SW 10.0 mph16.1 kmh 29.85 in1010.8 mb 0.00 in0.0 mm 0.00 in0.0 mm 0.81 in20.6 mm
06:38 PM 72.5°F22.5°C 65.3°F18.5°C 78% 4.0 mph SW6.4 kmh SW 6.0 mph9.7 kmh 29.85 in1010.8 mb 0.00 in0.0 mm 0.00 in0.0 mm 0.81 in20.6 mm
06:33 PM 72.7°F22.6°C 65.5°F18.6°C 78% 4.0 mph SW6.4 kmh SW 6.0 mph9.7 kmh 29.85 in1010.8 mb 0.00 in0.0 mm 0.00 in0.0 mm 0.81 in20.6 mm
06:28 PM 72.7°F22.6°C 65.1°F18.4°C 77% 4.0 mph SW6.4 kmh SW 8.9 mph14.3 kmh 29.85 in1010.8 mb 0.00 in0.0 mm 0.00 in0.0 mm 0.81 in20.6 mm
06:23 PM 72.9°F22.7°C 65.3°F18.5°C 77% 2.9 mph SW4.7 kmh SW 7.0 mph11.3 kmh 29.85 in1010.8 mb 0.00 in0.0 mm 0.00 in0.0 mm 0.81 in20.6 mm
06:18 PM 73.0°F22.8°C 65.5°F18.6°C 77% 2.9 mph WSW4.7 kmh WSW 4.9 mph7.9 kmh 29.85 in1010.8 mb 0.00 in0.0 mm 0.00 in0.0 mm 0.81 in20.6 mm
06:13 PM 72.9°F22.7°C 65.3°F18.5°C 77% 2.0 mph WSW3.2 kmh WSW 8.1 mph13.0 kmh 29.85 in1010.8 mb 0.00 in0.0 mm 0.00 in0.0 mm 0.81 in20.6 mm
06:08 PM 73.0°F22.8°C 65.5°F18.6°C 77% 0.9 mph WSW1.4 kmh WSW 4.0 mph6.4 kmh 29.85 in1010.8 mb 0.00 in0.0 mm 0.00 in0.0 mm 0.81 in20.6 mm
06:03 PM 72.9°F22.7°C 65.3°F18.5°C 77% 2.0 mph WSW3.2 kmh WSW 4.0 mph6.4 kmh 29.85 in1010.8 mb 0.00 in0.0 mm 0.00 in0.0 mm 0.81 in20.6 mm
05:58 PM 72.9°F22.7°C 65.3°F18.5°C 77% 2.0 mph WSW3.2 kmh WSW 4.9 mph7.9 kmh 29.86 in1011.2 mb 0.00 in0.0 mm 0.00 in0.0 mm 0.81 in20.6 mm
05:53 PM 72.9°F22.7°C 65.3°F18.5°C 77% 2.0 mph WSW3.2 kmh WSW 4.9 mph7.9 kmh 29.86 in1011.2 mb 0.00 in0.0 mm 0.00 in0.0 mm 0.81 in20.6 mm
05:48 PM 72.9°F22.7°C 65.3°F18.5°C 77% 2.0 mph WSW3.2 kmh WSW 4.9 mph7.9 kmh 29.86 in1011.2 mb 0.00 in0.0 mm 0.00 in0.0 mm 0.81 in20.6 mm
05:43 PM 73.0°F22.8°C 65.5°F18.6°C 77% 2.0 mph SW3.2 kmh SW 8.0 mph12.9 kmh 29.86 in1011.2 mb 0.00 in0.0 mm 0.00 in0.0 mm 0.81 in20.6 mm
05:38 PM 73.0°F22.8°C 65.5°F18.6°C 77% 2.9 mph SW4.7 kmh SW 2.9 mph4.7 kmh 29.86 in1011.2 mb 0.00 in0.0 mm 0.00 in0.0 mm 0.81 in20.6 mm
05:33 PM 72.9°F22.7°C 65.3°F18.5°C 77% 4.0 mph SW6.4 kmh SW 8.1 mph13.0 kmh 29.86 in1011.2 mb 0.00 in0.0 mm 0.00 in0.0 mm 0.81 in20.6 mm
05:28 PM 73.0°F22.8°C 65.5°F18.6°C 77% 4.0 mph SW6.4 kmh SW 6.9 mph11.1 kmh 29.86 in1011.2 mb 0.00 in0.0 mm 0.00 in0.0 mm 0.81 in20.6 mm
05:23 PM 72.9°F22.7°C 65.3°F18.5°C 77% 4.9 mph SW7.9 kmh SW 8.9 mph14.3 kmh 29.86 in1011.2 mb 0.00 in0.0 mm 0.00 in0.0 mm 0.81 in20.6 mm
05:18 PM 72.9°F22.7°C 65.3°F18.5°C 77% 4.0 mph SW6.4 kmh SW 8.1 mph13.0 kmh 29.85 in1010.8 mb 0.00 in0.0 mm 0.00 in0.0 mm 0.81 in20.6 mm
05:13 PM 72.9°F22.7°C 65.7°F18.7°C 78% 4.0 mph SW6.4 kmh SW 8.9 mph14.3 kmh 29.86 in1011.2 mb 0.00 in0.0 mm 0.00 in0.0 mm 0.81 in20.6 mm
05:08 PM 72.9°F22.7°C 65.7°F18.7°C 78% 2.9 mph SW4.7 kmh SW 6.9 mph11.1 kmh 29.86 in1011.2 mb 0.00 in0.0 mm 0.00 in0.0 mm 0.81 in20.6 mm
05:03 PM 72.9°F22.7°C 65.7°F18.7°C 78% 2.9 mph SSW4.7 kmh SSW 4.9 mph7.9 kmh 29.86 in1011.2 mb 0.00 in0.0 mm 0.00 in0.0 mm 0.81 in20.6 mm
04:58 PM 72.7°F22.6°C 65.5°F18.6°C 78% 4.0 mph S6.4 kmh S 6.0 mph9.7 kmh 29.87 in1011.5 mb 0.00 in0.0 mm 0.00 in0.0 mm 0.81 in20.6 mm
04:53 PM 72.3°F22.4°C 65.1°F18.4°C 78% 4.0 mph SW6.4 kmh SW 8.1 mph13.0 kmh 29.87 in1011.5 mb 0.00 in0.0 mm 0.00 in0.0 mm 0.81 in20.6 mm
04:43 PM 72.3°F22.4°C 65.8°F18.8°C 80% 4.0 mph SW6.4 kmh SW 10.1 mph16.3 kmh 29.87 in1011.5 mb 0.00 in0.0 mm 0.00 in0.0 mm 0.81 in20.6 mm
04:38 PM 72.3°F22.4°C 65.8°F18.8°C 80% 4.0 mph SSW6.4 kmh SSW 8.1 mph13.0 kmh 29.88 in1011.9 mb 0.00 in0.0 mm 0.00 in0.0 mm 0.81 in20.6 mm
04:33 PM 72.1°F22.3°C 66.0°F18.9°C 81% 4.9 mph SSW7.9 kmh SSW 8.1 mph13.0 kmh 29.88 in1011.9 mb 0.00 in0.0 mm 0.00 in0.0 mm 0.81 in20.6 mm
04:28 PM 72.0°F22.2°C 65.8°F18.8°C 81% 4.0 mph SSW6.4 kmh SSW 8.1 mph13.0 kmh 29.88 in1011.9 mb 0.00 in0.0 mm 0.00 in0.0 mm 0.81 in20.6 mm
04:23 PM 71.4°F21.9°C 65.7°F18.7°C 82% 4.0 mph SW6.4 kmh SW 10.1 mph16.3 kmh 29.88 in1011.9 mb 0.01 in0.3 mm 0.00 in0.0 mm 0.81 in20.6 mm
04:18 PM 71.2°F21.8°C 65.5°F18.6°C 82% 4.0 mph SW6.4 kmh SW 6.9 mph11.1 kmh 29.88 in1011.9 mb 0.01 in0.3 mm 0.00 in0.0 mm 0.81 in20.6 mm
04:13 PM 71.4°F21.9°C 66.0°F18.9°C 83% 4.0 mph SW6.4 kmh SW 6.9 mph11.1 kmh 29.89 in1012.2 mb 0.02 in0.5 mm 0.00 in0.0 mm 0.81 in20.6 mm
04:08 PM 71.1°F21.7°C 65.3°F18.5°C 82% 2.9 mph SW4.7 kmh SW 7.0 mph11.3 kmh 29.89 in1012.2 mb 0.02 in0.5 mm 0.00 in0.0 mm 0.81 in20.6 mm
04:03 PM 70.9°F21.6°C 65.5°F18.6°C 83% 2.0 mph WSW3.2 kmh WSW 4.0 mph6.4 kmh 29.89 in1012.2 mb 0.03 in0.8 mm 0.00 in0.0 mm 0.81 in20.6 mm
03:58 PM 70.5°F21.4°C 65.1°F18.4°C 83% 4.0 mph WSW6.4 kmh WSW 6.9 mph11.1 kmh 29.89 in1012.2 mb 0.04 in1.0 mm 0.00 in0.0 mm 0.81 in20.6 mm
03:53 PM 70.2°F21.2°C 64.8°F18.2°C 83% 4.9 mph WSW7.9 kmh WSW 10.1 mph16.3 kmh 29.89 in1012.2 mb 0.05 in1.3 mm 0.00 in0.0 mm 0.81 in20.6 mm
03:48 PM 70.2°F21.2°C 64.8°F18.2°C 83% 4.9 mph SW7.9 kmh SW 10.1 mph16.3 kmh 29.89 in1012.2 mb 0.05 in1.3 mm 0.00 in0.0 mm 0.81 in20.6 mm
03:43 PM 70.3°F21.3°C 64.9°F18.3°C 83% 4.0 mph WSW6.4 kmh WSW 8.1 mph13.0 kmh 29.89 in1012.2 mb 0.05 in1.3 mm 0.00 in0.0 mm 0.81 in20.6 mm
03:38 PM 70.3°F21.3°C 64.9°F18.3°C 83% 4.0 mph WSW6.4 kmh WSW 6.9 mph11.1 kmh 29.89 in1012.2 mb 0.06 in1.5 mm 0.00 in0.0 mm 0.81 in20.6 mm
03:33 PM 70.2°F21.2°C 64.8°F18.2°C 83% 4.9 mph SW7.9 kmh SW 8.9 mph14.3 kmh 29.89 in1012.2 mb 0.06 in1.5 mm 0.00 in0.0 mm 0.81 in20.6 mm
03:28 PM 70.2°F21.2°C 64.8°F18.2°C 83% 4.9 mph SW7.9 kmh SW 8.9 mph14.3 kmh 29.89 in1012.2 mb 0.06 in1.5 mm 0.12 in3.0 mm 0.81 in20.6 mm
03:23 PM 70.3°F21.3°C 64.9°F18.3°C 83% 4.0 mph SSW6.4 kmh SSW 8.9 mph14.3 kmh 29.88 in1011.9 mb 0.05 in1.3 mm 0.00 in0.0 mm 0.81 in20.6 mm
03:18 PM 70.2°F21.2°C 64.8°F18.2°C 83% 4.0 mph SSW6.4 kmh SSW 6.9 mph11.1 kmh 29.88 in1011.9 mb 0.05 in1.3 mm 0.12 in3.0 mm 0.80 in20.3 mm
03:13 PM 70.0°F21.1°C 64.6°F18.1°C 83% 4.0 mph SW6.4 kmh SW 6.9 mph11.1 kmh 29.88 in1011.9 mb 0.04 in1.0 mm 0.00 in0.0 mm 0.79 in20.1 mm
03:08 PM 70.0°F21.1°C 64.6°F18.1°C 83% 4.9 mph S7.9 kmh S 10.0 mph16.1 kmh 29.88 in1011.9 mb 0.04 in1.0 mm 0.12 in3.0 mm 0.79 in20.1 mm
03:03 PM 70.0°F21.1°C 64.6°F18.1°C 83% 4.9 mph SW7.9 kmh SW 8.9 mph14.3 kmh 29.88 in1011.9 mb 0.03 in0.8 mm 0.01 in0.3 mm 0.78 in19.8 mm
02:58 PM 69.6°F20.9°C 64.2°F17.9°C 83% 4.0 mph SW6.4 kmh SW 8.1 mph13.0 kmh 29.88 in1011.9 mb 0.02 in0.5 mm 0.12 in3.0 mm 0.77 in19.6 mm
02:53 PM 69.8°F21.0°C 64.4°F18.0°C 83% 4.0 mph S6.4 kmh S 8.1 mph13.0 kmh 29.88 in1011.9 mb 0.01 in0.3 mm 0.00 in0.0 mm 0.77 in19.6 mm
02:48 PM 70.0°F21.1°C 64.6°F18.1°C 83% 2.9 mph S4.7 kmh S 6.9 mph11.1 kmh 29.88 in1011.9 mb 0.01 in0.3 mm 0.00 in0.0 mm 0.76 in19.3 mm
02:43 PM 70.2°F21.2°C 64.8°F18.2°C 83% 2.0 mph S3.2 kmh S 4.9 mph7.9 kmh 29.88 in1011.9 mb 0.01 in0.3 mm 0.12 in3.0 mm 0.76 in19.3 mm
02:38 PM 70.3°F21.3°C 64.9°F18.3°C 83% 2.9 mph S4.7 kmh S 6.0 mph9.7 kmh 29.88 in1011.9 mb 0.00 in0.0 mm 0.00 in0.0 mm 0.75 in19.1 mm
02:33 PM 70.2°F21.2°C 64.8°F18.2°C 83% 2.9 mph SSW4.7 kmh SSW 6.0 mph9.7 kmh 29.88 in1011.9 mb 0.00 in0.0 mm 0.00 in0.0 mm 0.75 in19.1 mm
02:28 PM 70.2°F21.2°C 64.8°F18.2°C 83% 2.9 mph SW4.7 kmh SW 7.0 mph11.3 kmh 29.88 in1011.9 mb 0.00 in0.0 mm 0.00 in0.0 mm 0.75 in19.1 mm
02:23 PM 70.2°F21.2°C 64.8°F18.2°C 83% 2.0 mph S3.2 kmh S 4.0 mph6.4 kmh 29.88 in1011.9 mb 0.00 in0.0 mm 0.00 in0.0 mm 0.75 in19.1 mm
02:18 PM 69.8°F21.0°C 64.4°F18.0°C 83% 2.9 mph WSW4.7 kmh WSW 6.9 mph11.1 kmh 29.88 in1011.9 mb 0.01 in0.3 mm 0.00 in0.0 mm 0.75 in19.1 mm
02:13 PM 69.6°F20.9°C 64.2°F17.9°C 83% 2.0 mph S3.2 kmh S 8.1 mph13.0 kmh 29.88 in1011.9 mb 0.03 in0.8 mm 0.00 in0.0 mm 0.75 in19.1 mm
02:08 PM 69.4°F20.8°C 64.0°F17.8°C 83% 2.0 mph S3.2 kmh S 2.9 mph4.7 kmh 29.87 in1011.5 mb 0.05 in1.3 mm 0.00 in0.0 mm 0.75 in19.1 mm
02:03 PM 69.6°F20.9°C 64.2°F17.9°C 83% 4.0 mph S6.4 kmh S 8.9 mph14.3 kmh 29.86 in1011.2 mb 0.06 in1.5 mm 0.00 in0.0 mm 0.75 in19.1 mm
01:58 PM 70.2°F21.2°C 65.1°F18.4°C 84% 2.9 mph S4.7 kmh S 9.0 mph14.5 kmh 29.87 in1011.5 mb 0.08 in2.0 mm 0.00 in0.0 mm 0.75 in19.1 mm
01:53 PM 69.3°F20.7°C 64.2°F17.9°C 84% 2.0 mph SE3.2 kmh SE 4.0 mph6.4 kmh 29.87 in1011.5 mb 0.13 in3.3 mm 0.00 in0.0 mm 0.75 in19.1 mm
01:48 PM 69.3°F20.7°C 64.2°F17.9°C 84% 2.9 mph WNW4.7 kmh WNW 8.1 mph13.0 kmh 29.86 in1011.2 mb 0.19 in4.8 mm 0.00 in0.0 mm 0.75 in19.1 mm
01:43 PM 69.3°F20.7°C 64.2°F17.9°C 84% 2.9 mph WSW4.7 kmh WSW 10.1 mph16.3 kmh 29.85 in1010.8 mb 0.26 in6.6 mm 0.00 in0.0 mm 0.75 in19.1 mm
01:38 PM 68.9°F20.5°C 63.9°F17.7°C 84% 0.9 mph WSW1.4 kmh WSW 2.9 mph4.7 kmh 29.84 in1010.5 mb 0.38 in9.7 mm 0.00 in0.0 mm 0.75 in19.1 mm
01:33 PM 68.5°F20.3°C 63.5°F17.5°C 84% 2.9 mph SW4.7 kmh SW 4.9 mph7.9 kmh 29.85 in1010.8 mb 0.57 in14.5 mm 0.00 in0.0 mm 0.75 in19.1 mm
01:28 PM 68.4°F20.2°C 63.3°F17.4°C 84% 4.9 mph WSW7.9 kmh WSW 8.1 mph13.0 kmh 29.85 in1010.8 mb 0.66 in16.8 mm 0.00 in0.0 mm 0.75 in19.1 mm
01:23 PM 68.4°F20.2°C 63.3°F17.4°C 84% 6.0 mph SW9.7 kmh SW 8.9 mph14.3 kmh 29.86 in1011.2 mb 0.69 in17.5 mm 0.00 in0.0 mm 0.75 in19.1 mm
01:18 PM 68.4°F20.2°C 63.3°F17.4°C 84% 6.0 mph SW9.7 kmh SW 10.1 mph16.3 kmh 29.88 in1011.9 mb 0.69 in17.5 mm 0.00 in0.0 mm 0.74 in18.8 mm
01:13 PM 68.5°F20.3°C 63.5°F17.5°C 84% 4.0 mph SSW6.4 kmh SSW 10.1 mph16.3 kmh 29.88 in1011.9 mb 0.69 in17.5 mm 0.00 in0.0 mm 0.73 in18.5 mm
01:08 PM 68.7°F20.4°C 63.3°F17.4°C 83% 2.9 mph SSW4.7 kmh SSW 7.0 mph11.3 kmh 29.88 in1011.9 mb 0.69 in17.5 mm 0.00 in0.0 mm 0.71 in18.0 mm
01:03 PM 68.9°F20.5°C 63.5°F17.5°C 83% 2.0 mph WSW3.2 kmh WSW 4.9 mph7.9 kmh 29.88 in1011.9 mb 0.69 in17.5 mm 0.02 in0.5 mm 0.69 in17.5 mm
12:58 PM 68.7°F20.4°C 63.3°F17.4°C 83% 4.0 mph SW6.4 kmh SW 8.1 mph13.0 kmh 29.88 in1011.9 mb 0.67 in17.0 mm 0.60 in15.2 mm 0.67 in17.0 mm
12:53 PM 68.9°F20.5°C 63.5°F17.5°C 83% 6.9 mph WSW11.1 kmh WSW 16.1 mph25.9 kmh 29.88 in1011.9 mb 0.62 in15.7 mm 0.72 in18.3 mm 0.63 in16.0 mm
12:48 PM 69.1°F20.6°C 63.7°F17.6°C 83% 10.1 mph SW16.3 kmh SW 19.0 mph30.6 kmh 29.89 in1012.2 mb 0.56 in14.2 mm 0.84 in21.3 mm 0.57 in14.5 mm
12:43 PM 69.3°F20.7°C 63.1°F17.3°C 81% 14.1 mph W22.7 kmh W 23.9 mph38.5 kmh 29.88 in1011.9 mb 0.49 in12.4 mm 1.44 in36.6 mm 0.49 in12.4 mm
12:38 PM 70.3°F21.3°C 64.2°F17.9°C 81% 14.1 mph 22.7 kmh 37.0 mph59.5 kmh 29.86 in1011.2 mb 0.37 in9.4 mm 2.28 in57.9 mm 0.37 in9.4 mm
12:33 PM 71.8°F22.1°C 64.9°F18.3°C 79% 11.0 mph W17.7 kmh W 19.9 mph32.0 kmh 29.87 in1011.5 mb 0.18 in4.6 mm 1.08 in27.4 mm 0.18 in4.6 mm
12:28 PM 71.8°F22.1°C 63.9°F17.7°C 76% 13.0 mph N20.9 kmh N 21.0 mph33.8 kmh 29.86 in1011.2 mb 0.09 in2.3 mm 0.36 in9.1 mm 0.09 in2.3 mm
12:23 PM 72.7°F22.6°C 63.5°F17.5°C 73% 14.1 mph NNW22.7 kmh NNW 25.1 mph40.4 kmh 29.85 in1010.8 mb 0.06 in1.5 mm 0.12 in3.0 mm 0.06 in1.5 mm
12:18 PM 74.5°F23.6°C 65.7°F18.7°C 74% 14.1 mph N22.7 kmh N 25.1 mph40.4 kmh 29.83 in1010.2 mb 0.05 in1.3 mm 0.24 in6.1 mm 0.05 in1.3 mm
12:13 PM 75.9°F24.4°C 66.6°F19.2°C 73% 14.1 mph NNW22.7 kmh NNW 23.0 mph37.0 kmh 29.81 in1009.5 mb 0.03 in0.8 mm 0.24 in6.1 mm 0.03 in0.8 mm
12:08 PM 77.2°F25.1°C 68.2°F20.1°C 74% 14.1 mph N22.7 kmh N 21.0 mph33.8 kmh 29.81 in1009.5 mb 0.01 in0.3 mm 0.12 in3.0 mm 0.01 in0.3 mm
12:03 PM 79.5°F26.4°C 68.5°F20.3°C 69% 12.1 mph NNE19.5 kmh NNE 23.9 mph38.5 kmh 29.83 in1010.2 mb 0.00 in0.0 mm 0.00 in0.0 mm 0.00 in0.0 mm
11:58 AM 83.3°F28.5°C 69.8°F21.0°C 64% 10.1 mph NE16.3 kmh NE 19.0 mph30.6 kmh 29.82 in1009.8 mb 0.00 in0.0 mm 0.00 in0.0 mm 0.00 in0.0 mm
11:53 AM 84.6°F29.2°C 71.1°F21.7°C 64% 8.1 mph NE13.0 kmh NE 14.1 mph22.7 kmh 29.83 in1010.2 mb 0.00 in0.0 mm 0.00 in0.0 mm 0.00 in0.0 mm
11:48 AM 84.9°F29.4°C 71.4°F21.9°C 64% 8.1 mph NE13.0 kmh NE 14.1 mph22.7 kmh 29.83 in1010.2 mb 0.00 in0.0 mm 0.00 in0.0 mm 0.00 in0.0 mm
11:43 AM 84.4°F29.1°C 72.1°F22.3°C 67% 8.1 mph NE13.0 kmh NE 13.0 mph20.9 kmh 29.82 in1009.8 mb 0.00 in0.0 mm 0.00 in0.0 mm 0.00 in0.0 mm
11:38 AM 84.0°F28.9°C 72.7°F22.6°C 69% 8.1 mph ENE13.0 kmh ENE 12.1 mph19.5 kmh 29.82 in1009.8 mb 0.00 in0.0 mm 0.00 in0.0 mm 0.00 in0.0 mm
11:33 AM 84.4°F29.1°C 73.0°F22.8°C 69% 6.9 mph NNE11.1 kmh NNE 10.1 mph16.3 kmh 29.82 in1009.8 mb 0.00 in0.0 mm 0.00 in0.0 mm 0.00 in0.0 mm
11:28 AM 84.4°F29.1°C 73.0°F22.8°C 69% 6.0 mph E9.7 kmh E 10.1 mph16.3 kmh 29.83 in1010.2 mb 0.00 in0.0 mm 0.00 in0.0 mm 0.00 in0.0 mm
11:23 AM 84.7°F29.3°C 73.4°F23.0°C 69% 6.0 mph E9.7 kmh E 10.1 mph16.3 kmh 29.83 in1010.2 mb 0.00 in0.0 mm 0.00 in0.0 mm 0.00 in0.0 mm
11:18 AM 84.2°F29.0°C 73.4°F23.0°C 70% 6.9 mph ENE11.1 kmh ENE 8.9 mph14.3 kmh 29.84 in1010.5 mb 0.00 in0.0 mm 0.00 in0.0 mm 0.00 in0.0 mm
11:13 AM 84.0°F28.9°C 73.2°F22.9°C 70% 6.9 mph NE11.1 kmh NE 11.0 mph17.7 kmh 29.83 in1010.2 mb 0.00 in0.0 mm 0.00 in0.0 mm 0.00 in0.0 mm
11:08 AM 83.8°F28.8°C 72.5°F22.5°C 69% 6.9 mph E11.1 kmh E 13.0 mph20.9 kmh 29.83 in1010.2 mb 0.00 in0.0 mm 0.00 in0.0 mm 0.00 in0.0 mm
11:03 AM 83.8°F28.8°C 72.5°F22.5°C 69% 6.0 mph ENE9.7 kmh ENE 10.1 mph16.3 kmh 29.83 in1010.2 mb 0.00 in0.0 mm 0.00 in0.0 mm 0.00 in0.0 mm
10:58 AM 84.0°F28.9°C 72.7°F22.6°C 69% 4.9 mph ENE7.9 kmh ENE 8.1 mph13.0 kmh 29.84 in1010.5 mb 0.00 in0.0 mm 0.00 in0.0 mm 0.00 in0.0 mm
10:53 AM 84.0°F28.9°C 72.3°F22.4°C 68% 4.9 mph ENE7.9 kmh ENE 9.0 mph14.5 kmh 29.84 in1010.5 mb 0.00 in0.0 mm 0.00 in0.0 mm 0.00 in0.0 mm
10:48 AM 84.4°F29.1°C 72.7°F22.6°C 68% 4.0 mph E6.4 kmh E 8.1 mph13.0 kmh 29.84 in1010.5 mb 0.00 in0.0 mm 0.00 in0.0 mm 0.00 in0.0 mm
10:43 AM 84.2°F29.0°C 72.5°F22.5°C 68% 4.0 mph E6.4 kmh E 8.1 mph13.0 kmh 29.84 in1010.5 mb 0.00 in0.0 mm 0.00 in0.0 mm 0.00 in0.0 mm
10:38 AM 84.6°F29.2°C 72.3°F22.4°C 67% 4.0 mph NE6.4 kmh NE 4.9 mph7.9 kmh 29.84 in1010.5 mb 0.00 in0.0 mm 0.00 in0.0 mm 0.00 in0.0 mm
10:33 AM 84.9°F29.4°C 72.7°F22.6°C 67% 4.0 mph E6.4 kmh E 6.0 mph9.7 kmh 29.85 in1010.8 mb 0.00 in0.0 mm 0.00 in0.0 mm 0.00 in0.0 mm
10:28 AM 84.7°F29.3°C 72.1°F22.3°C 66% 4.0 mph E6.4 kmh E 6.9 mph11.1 kmh 29.84 in1010.5 mb 0.00 in0.0 mm 0.00 in0.0 mm 0.00 in0.0 mm
10:23 AM 84.9°F29.4°C 72.3°F22.4°C 66% 4.0 mph E6.4 kmh E 6.9 mph11.1 kmh 29.83 in1010.2 mb 0.00 in0.0 mm 0.00 in0.0 mm 0.00 in0.0 mm
10:18 AM 85.3°F29.6°C 72.7°F22.6°C 66% 2.9 mph E4.7 kmh E 6.9 mph11.1 kmh 29.83 in1010.2 mb 0.00 in0.0 mm 0.00 in0.0 mm 0.00 in0.0 mm
10:13 AM 84.6°F29.2°C 72.3°F22.4°C 67% 4.0 mph ESE6.4 kmh ESE 8.1 mph13.0 kmh 29.83 in1010.2 mb 0.00 in0.0 mm 0.00 in0.0 mm 0.00 in0.0 mm
10:08 AM 84.0°F28.9°C 72.0°F22.2°C 67% 4.9 mph E7.9 kmh E 8.1 mph13.0 kmh 29.83 in1010.2 mb 0.00 in0.0 mm 0.00 in0.0 mm 0.00 in0.0 mm
10:03 AM 84.0°F28.9°C 72.0°F22.2°C 67% 4.9 mph E7.9 kmh E 8.1 mph13.0 kmh 29.83 in1010.2 mb 0.00 in0.0 mm 0.00 in0.0 mm 0.00 in0.0 mm
09:58 AM 84.2°F29.0°C 72.0°F22.2°C 67% 4.9 mph ENE7.9 kmh ENE 8.9 mph14.3 kmh 29.83 in1010.2 mb 0.00 in0.0 mm 0.00 in0.0 mm 0.00 in0.0 mm
09:53 AM 84.4°F29.1°C 71.8°F22.1°C 66% 4.9 mph NE7.9 kmh NE 8.1 mph13.0 kmh 29.83 in1010.2 mb 0.00 in0.0 mm 0.00 in0.0 mm 0.00 in0.0 mm
09:48 AM 84.4°F29.1°C 71.8°F22.1°C 66% 4.0 mph ENE6.4 kmh ENE 6.0 mph9.7 kmh 29.83 in1010.2 mb 0.00 in0.0 mm 0.00 in0.0 mm 0.00 in0.0 mm
09:43 AM 84.2°F29.0°C 72.0°F22.2°C 67% 4.0 mph ENE6.4 kmh ENE 6.9 mph11.1 kmh 29.83 in1010.2 mb 0.00 in0.0 mm 0.00 in0.0 mm 0.00 in0.0 mm
09:38 AM 83.8°F28.8°C 71.8°F22.1°C 67% 2.9 mph ENE4.7 kmh ENE 6.0 mph9.7 kmh 29.83 in1010.2 mb 0.00 in0.0 mm 0.00 in0.0 mm 0.00 in0.0 mm
09:33 AM 83.8°F28.8°C 71.2°F21.8°C 66% 2.0 mph NE3.2 kmh NE 4.9 mph7.9 kmh 29.83 in1010.2 mb 0.00 in0.0 mm 0.00 in0.0 mm 0.00 in0.0 mm
09:28 AM 83.8°F28.8°C 71.2°F21.8°C 66% 2.9 mph NE4.7 kmh NE 5.0 mph8.0 kmh 29.83 in1010.2 mb 0.00 in0.0 mm 0.00 in0.0 mm 0.00 in0.0 mm
09:23 AM 83.8°F28.8°C 71.2°F21.8°C 66% 2.0 mph NE3.2 kmh NE 4.0 mph6.4 kmh 29.83 in1010.2 mb 0.00 in0.0 mm 0.00 in0.0 mm 0.00 in0.0 mm
09:18 AM 84.0°F28.9°C 71.1°F21.7°C 65% 2.0 mph ENE3.2 kmh ENE 4.0 mph6.4 kmh 29.83 in1010.2 mb 0.00 in0.0 mm 0.00 in0.0 mm 0.00 in0.0 mm
09:12 AM 84.2°F29.0°C 71.2°F21.8°C 65% 2.9 mph ENE4.7 kmh ENE 4.9 mph7.9 kmh 29.83 in1010.2 mb 0.00 in0.0 mm 0.00 in0.0 mm 0.00 in0.0 mm
09:07 AM 84.2°F29.0°C 71.2°F21.8°C 65% 2.9 mph ENE4.7 kmh ENE 4.9 mph7.9 kmh 29.83 in1010.2 mb 0.00 in0.0 mm 0.00 in0.0 mm 0.00 in0.0 mm
09:02 AM 84.4°F29.1°C 71.2°F21.8°C 65% 2.0 mph E3.2 kmh E 4.0 mph6.4 kmh 29.84 in1010.5 mb 0.00 in0.0 mm 0.00 in0.0 mm 0.00 in0.0 mm
08:57 AM 84.0°F28.9°C 71.1°F21.7°C 65% 2.0 mph E3.2 kmh E 4.0 mph6.4 kmh 29.83 in1010.2 mb 0.00 in0.0 mm 0.00 in0.0 mm 0.00 in0.0 mm
08:52 AM 83.8°F28.8°C 70.9°F21.6°C 65% 2.9 mph E4.7 kmh E 4.9 mph7.9 kmh 29.83 in1010.2 mb 0.00 in0.0 mm 0.00 in0.0 mm 0.00 in0.0 mm
08:47 AM 83.8°F28.8°C 70.3°F21.3°C 64% 2.9 mph ENE4.7 kmh ENE 6.0 mph9.7 kmh 29.83 in1010.2 mb 0.00 in0.0 mm 0.00 in0.0 mm 0.00 in0.0 mm
08:42 AM 83.5°F28.6°C 70.0°F21.1°C 64% 2.0 mph NE3.2 kmh NE 4.9 mph7.9 kmh 29.83 in1010.2 mb 0.00 in0.0 mm 0.00 in0.0 mm 0.00 in0.0 mm
08:37 AM 83.1°F28.4°C 69.6°F20.9°C 64% 2.0 mph N3.2 kmh N 4.0 mph6.4 kmh 29.83 in1010.2 mb 0.00 in0.0 mm 0.00 in0.0 mm 0.00 in0.0 mm
08:32 AM 82.8°F28.2°C 69.3°F20.7°C 64% 2.0 mph N3.2 kmh N 2.9 mph4.7 kmh 29.83 in1010.2 mb 0.00 in0.0 mm 0.00 in0.0 mm 0.00 in0.0 mm
08:27 AM 82.2°F27.9°C 68.9°F20.5°C 64% 2.0 mph N3.2 kmh N 4.0 mph6.4 kmh 29.83 in1010.2 mb 0.00 in0.0 mm 0.00 in0.0 mm 0.00 in0.0 mm
08:22 AM 82.2°F27.9°C 68.9°F20.5°C 64% 2.0 mph N3.2 kmh N 4.0 mph6.4 kmh 29.82 in1009.8 mb 0.00 in0.0 mm 0.00 in0.0 mm 0.00 in0.0 mm
08:17 AM 82.0°F27.8°C 68.2°F20.1°C 63% 2.0 mph NW3.2 kmh NW 4.0 mph6.4 kmh 29.82 in1009.8 mb 0.00 in0.0 mm 0.00 in0.0 mm 0.00 in0.0 mm
08:12 AM 81.9°F27.7°C 68.0°F20.0°C 63% 2.0 mph NW3.2 kmh NW 4.0 mph6.4 kmh 29.82 in1009.8 mb 0.00 in0.0 mm 0.00 in0.0 mm 0.00 in0.0 mm
08:07 AM 82.0°F27.8°C 68.2°F20.1°C 63% 2.9 mph NW4.7 kmh NW 4.0 mph6.4 kmh 29.82 in1009.8 mb 0.00 in0.0 mm 0.00 in0.0 mm 0.00 in0.0 mm
08:02 AM 82.0°F27.8°C 68.2°F20.1°C 63% 2.0 mph NW3.2 kmh NW 6.9 mph11.1 kmh 29.82 in1009.8 mb 0.00 in0.0 mm 0.00 in0.0 mm 0.00 in0.0 mm
07:57 AM 82.4°F28.0°C 69.1°F20.6°C 64% 2.0 mph NNE3.2 kmh NNE 2.9 mph4.7 kmh 29.82 in1009.8 mb 0.00 in0.0 mm 0.00 in0.0 mm 0.00 in0.0 mm
07:52 AM 81.9°F27.7°C 68.5°F20.3°C 64% 0.9 mph WSW1.4 kmh WSW 4.0 mph6.4 kmh 29.82 in1009.8 mb 0.00 in0.0 mm 0.00 in0.0 mm 0.00 in0.0 mm
07:47 AM 81.1°F27.3°C 67.8°F19.9°C 64% 0.9 mph NW1.4 kmh NW 2.0 mph3.2 kmh 29.82 in1009.8 mb 0.00 in0.0 mm 0.00 in0.0 mm 0.00 in0.0 mm
07:42 AM 80.8°F27.1°C 67.5°F19.7°C 64% 0.9 mph NW1.4 kmh NW 2.9 mph4.7 kmh 29.83 in1010.2 mb 0.00 in0.0 mm 0.00 in0.0 mm 0.00 in0.0 mm
07:37 AM 80.8°F27.1°C 66.9°F19.4°C 63% 0.9 mph NW1.4 kmh NW 2.9 mph4.7 kmh 29.83 in1010.2 mb 0.00 in0.0 mm 0.00 in0.0 mm 0.00 in0.0 mm
07:32 AM 80.8°F27.1°C 67.5°F19.7°C 64% Calm Calm 2.0 mph3.2 kmh 29.83 in1010.2 mb 0.00 in0.0 mm 0.00 in0.0 mm 0.00 in0.0 mm
07:27 AM 80.2°F26.8°C 66.6°F19.2°C 63% Calm Calm 0.9 mph1.4 kmh 29.83 in1010.2 mb 0.00 in0.0 mm 0.00 in0.0 mm 0.00 in0.0 mm
07:22 AM 80.1°F26.7°C 66.4°F19.1°C 63% Calm Calm 0.9 mph1.4 kmh 29.83 in1010.2 mb 0.00 in0.0 mm 0.00 in0.0 mm 0.00 in0.0 mm
07:17 AM 80.1°F26.7°C 66.7°F19.3°C 64% Calm Calm 2.0 mph3.2 kmh 29.83 in1010.2 mb 0.00 in0.0 mm 0.00 in0.0 mm 0.00 in0.0 mm
07:12 AM 80.1°F26.7°C 66.7°F19.3°C 64% 0.9 mph WNW1.4 kmh WNW 2.0 mph3.2 kmh 29.83 in1010.2 mb 0.00 in0.0 mm 0.00 in0.0 mm 0.00 in0.0 mm
07:07 AM 79.9°F26.6°C 66.6°F19.2°C 64% 0.9 mph WNW1.4 kmh WNW 2.0 mph3.2 kmh 29.83 in1010.2 mb 0.00 in0.0 mm 0.00 in0.0 mm 0.00 in0.0 mm
07:02 AM 79.5°F26.4°C 66.7°F19.3°C 65% Calm Calm -- 29.83 in1010.2 mb 0.00 in0.0 mm 0.00 in0.0 mm 0.00 in0.0 mm
06:57 AM 79.2°F26.2°C 66.4°F19.1°C 65% Calm Calm -- 29.83 in1010.2 mb 0.00 in0.0 mm 0.00 in0.0 mm 0.00 in0.0 mm
06:52 AM 78.6°F25.9°C 65.8°F18.8°C 65% Calm Calm -- 29.83 in1010.2 mb 0.00 in0.0 mm 0.00 in0.0 mm 0.00 in0.0 mm
06:47 AM 78.4°F25.8°C 65.7°F18.7°C 65% Calm Calm 2.0 mph3.2 kmh 29.83 in1010.2 mb 0.00 in0.0 mm 0.00 in0.0 mm 0.00 in0.0 mm
06:42 AM 78.3°F25.7°C 65.1°F18.4°C 64% 0.9 mph WNW1.4 kmh WNW 2.9 mph4.7 kmh 29.83 in1010.2 mb 0.00 in0.0 mm 0.00 in0.0 mm 0.00 in0.0 mm
06:37 AM 78.3°F25.7°C 65.1°F18.4°C 64% 0.9 mph WNW1.4 kmh WNW 2.9 mph4.7 kmh 29.84 in1010.5 mb 0.00 in0.0 mm 0.00 in0.0 mm 0.00 in0.0 mm
06:32 AM 78.3°F25.7°C 65.1°F18.4°C 64% 0.9 mph WNW1.4 kmh WNW 2.9 mph4.7 kmh 29.83 in1010.2 mb 0.00 in0.0 mm 0.00 in0.0 mm 0.00 in0.0 mm
06:27 AM 78.3°F25.7°C 65.1°F18.4°C 64% 0.9 mph WNW1.4 kmh WNW 4.0 mph6.4 kmh 29.84 in1010.5 mb 0.00 in0.0 mm 0.00 in0.0 mm 0.00 in0.0 mm
06:22 AM 78.4°F25.8°C 65.3°F18.5°C 64% 0.9 mph NW1.4 kmh NW 2.9 mph4.7 kmh 29.83 in1010.2 mb 0.00 in0.0 mm 0.00 in0.0 mm 0.00 in0.0 mm
06:17 AM 78.3°F25.7°C 65.5°F18.6°C 65% 0.9 mph NW1.4 kmh NW 2.9 mph4.7 kmh 29.83 in1010.2 mb 0.00 in0.0 mm 0.00 in0.0 mm 0.00 in0.0 mm
06:12 AM 78.1°F25.6°C 66.2°F19.0°C 67% 0.9 mph W1.4 kmh W 2.9 mph4.7 kmh 29.83 in1010.2 mb 0.00 in0.0 mm 0.00 in0.0 mm 0.00 in0.0 mm
06:07 AM 77.7°F25.4°C 65.8°F18.8°C 67% 2.0 mph W3.2 kmh W 4.0 mph6.4 kmh 29.83 in1010.2 mb 0.00 in0.0 mm 0.00 in0.0 mm 0.00 in0.0 mm
06:02 AM 77.4°F25.2°C 65.5°F18.6°C 67% 2.0 mph NW3.2 kmh NW 4.9 mph7.9 kmh 29.83 in1010.2 mb 0.00 in0.0 mm 0.00 in0.0 mm 0.00 in0.0 mm
05:57 AM 77.2°F25.1°C 65.3°F18.5°C 67% 2.0 mph WNW3.2 kmh WNW 4.0 mph6.4 kmh 29.83 in1010.2 mb 0.00 in0.0 mm 0.00 in0.0 mm 0.00 in0.0 mm
05:52 AM 76.8°F24.9°C 64.9°F18.3°C 67% 2.0 mph NW3.2 kmh NW 4.0 mph6.4 kmh 29.83 in1010.2 mb 0.00 in0.0 mm 0.00 in0.0 mm 0.00 in0.0 mm
05:47 AM 76.5°F24.7°C 65.1°F18.4°C 68% 2.9 mph NW4.7 kmh NW 4.9 mph7.9 kmh 29.83 in1010.2 mb 0.00 in0.0 mm 0.00 in0.0 mm 0.00 in0.0 mm
05:42 AM 76.1°F24.5°C 65.1°F18.4°C 69% 2.0 mph NW3.2 kmh NW 5.0 mph8.0 kmh 29.83 in1010.2 mb 0.00 in0.0 mm 0.00 in0.0 mm 0.00 in0.0 mm
05:37 AM 75.9°F24.4°C 64.9°F18.3°C 69% 2.0 mph NW3.2 kmh NW 2.9 mph4.7 kmh 29.82 in1009.8 mb 0.00 in0.0 mm 0.00 in0.0 mm 0.00 in0.0 mm
05:32 AM 76.1°F24.5°C 65.1°F18.4°C 69% 2.0 mph NW3.2 kmh NW 4.0 mph6.4 kmh 29.82 in1009.8 mb 0.00 in0.0 mm 0.00 in0.0 mm 0.00 in0.0 mm
05:27 AM 76.3°F24.6°C 65.3°F18.5°C 69% 0.9 mph NW1.4 kmh NW 3.0 mph4.8 kmh 29.81 in1009.5 mb 0.00 in0.0 mm 0.00 in0.0 mm 0.00 in0.0 mm
05:22 AM 76.3°F24.6°C 65.3°F18.5°C 69% Calm Calm 2.0 mph3.2 kmh 29.81 in1009.5 mb 0.00 in0.0 mm 0.00 in0.0 mm 0.00 in0.0 mm
05:17 AM 76.3°F24.6°C 65.3°F18.5°C 69% Calm Calm -- 29.81 in1009.5 mb 0.00 in0.0 mm 0.00 in0.0 mm 0.00 in0.0 mm
05:12 AM 76.3°F24.6°C 65.3°F18.5°C 69% Calm Calm 0.9 mph1.4 kmh 29.81 in1009.5 mb 0.00 in0.0 mm 0.00 in0.0 mm 0.00 in0.0 mm
05:07 AM 76.3°F24.6°C 65.3°F18.5°C 69% Calm Calm 2.0 mph3.2 kmh 29.81 in1009.5 mb 0.00 in0.0 mm 0.00 in0.0 mm 0.00 in0.0 mm
05:02 AM 76.1°F24.5°C 65.1°F18.4°C 69% Calm Calm 2.0 mph3.2 kmh 29.81 in1009.5 mb 0.00 in0.0 mm 0.00 in0.0 mm 0.00 in0.0 mm
04:57 AM 75.9°F24.4°C 64.9°F18.3°C 69% Calm Calm 0.9 mph1.4 kmh 29.81 in1009.5 mb 0.00 in0.0 mm 0.00 in0.0 mm 0.00 in0.0 mm
04:52 AM 75.7°F24.3°C 64.8°F18.2°C 69% 0.9 mph WNW1.4 kmh WNW 2.0 mph3.2 kmh 29.81 in1009.5 mb 0.00 in0.0 mm 0.00 in0.0 mm 0.00 in0.0 mm
04:47 AM 75.7°F24.3°C 64.8°F18.2°C 69% 2.0 mph WNW3.2 kmh WNW 4.0 mph6.4 kmh 29.82 in1009.8 mb 0.00 in0.0 mm 0.00 in0.0 mm 0.00 in0.0 mm
04:42 AM 75.9°F24.4°C 64.6°F18.1°C 68% 2.0 mph WNW3.2 kmh WNW 4.0 mph6.4 kmh 29.82 in1009.8 mb 0.00 in0.0 mm 0.00 in0.0 mm 0.00 in0.0 mm
04:37 AM 76.5°F24.7°C 65.1°F18.4°C 68% 2.0 mph NW3.2 kmh NW 4.0 mph6.4 kmh 29.82 in1009.8 mb 0.00 in0.0 mm 0.00 in0.0 mm 0.00 in0.0 mm
04:32 AM 76.6°F24.8°C 65.3°F18.5°C 68% 0.9 mph WNW1.4 kmh WNW 2.0 mph3.2 kmh 29.82 in1009.8 mb 0.00 in0.0 mm 0.00 in0.0 mm 0.00 in0.0 mm
04:27 AM 76.8°F24.9°C 64.9°F18.3°C 67% 0.9 mph WNW1.4 kmh WNW 3.0 mph4.8 kmh 29.82 in1009.8 mb 0.00 in0.0 mm 0.00 in0.0 mm 0.00 in0.0 mm
04:22 AM 77.2°F25.1°C 65.8°F18.8°C 68% Calm Calm -- 29.82 in1009.8 mb 0.00 in0.0 mm 0.00 in0.0 mm 0.00 in0.0 mm
04:17 AM 76.8°F24.9°C 65.5°F18.6°C 68% Calm Calm 0.9 mph1.4 kmh 29.82 in1009.8 mb 0.00 in0.0 mm 0.00 in0.0 mm 0.00 in0.0 mm
04:12 AM 76.8°F24.9°C 65.8°F18.8°C 69% 0.9 mph WNW1.4 kmh WNW 0.9 mph1.4 kmh 29.82 in1009.8 mb 0.00 in0.0 mm 0.00 in0.0 mm 0.00 in0.0 mm
04:07 AM 76.6°F24.8°C 65.7°F18.7°C 69% 0.9 mph WNW1.4 kmh WNW 2.0 mph3.2 kmh 29.82 in1009.8 mb 0.00 in0.0 mm 0.00 in0.0 mm 0.00 in0.0 mm
04:02 AM 76.5°F24.7°C 65.5°F18.6°C 69% Calm Calm 0.9 mph1.4 kmh 29.82 in1009.8 mb 0.00 in0.0 mm 0.00 in0.0 mm 0.00 in0.0 mm
03:57 AM 76.5°F24.7°C 65.5°F18.6°C 69% Calm Calm 0.9 mph1.4 kmh 29.82 in1009.8 mb 0.00 in0.0 mm 0.00 in0.0 mm 0.00 in0.0 mm
03:52 AM 76.5°F24.7°C 65.5°F18.6°C 69% Calm Calm 0.9 mph1.4 kmh 29.82 in1009.8 mb 0.00 in0.0 mm 0.00 in0.0 mm 0.00 in0.0 mm
03:47 AM 76.3°F24.6°C 65.3°F18.5°C 69% 0.9 mph WNW1.4 kmh WNW 2.0 mph3.2 kmh 29.82 in1009.8 mb 0.00 in0.0 mm 0.00 in0.0 mm 0.00 in0.0 mm
03:42 AM 76.1°F24.5°C 65.1°F18.4°C 69% 0.9 mph WNW1.4 kmh WNW 2.9 mph4.7 kmh 29.82 in1009.8 mb 0.00 in0.0 mm 0.00 in0.0 mm 0.00 in0.0 mm
03:37 AM 76.5°F24.7°C 65.1°F18.4°C 68% 0.9 mph WNW1.4 kmh WNW 2.9 mph4.7 kmh 29.82 in1009.8 mb 0.00 in0.0 mm 0.00 in0.0 mm 0.00 in0.0 mm
03:32 AM 76.6°F24.8°C 65.3°F18.5°C 68% Calm Calm 2.9 mph4.7 kmh 29.82 in1009.8 mb 0.00 in0.0 mm 0.00 in0.0 mm 0.00 in0.0 mm
03:27 AM 76.8°F24.9°C 65.5°F18.6°C 68% Calm Calm 0.9 mph1.4 kmh 29.82 in1009.8 mb 0.00 in0.0 mm 0.00 in0.0 mm 0.00 in0.0 mm
03:22 AM 76.8°F24.9°C 65.5°F18.6°C 68% Calm Calm 2.0 mph3.2 kmh 29.82 in1009.8 mb 0.00 in0.0 mm 0.00 in0.0 mm 0.00 in0.0 mm
03:17 AM 76.5°F24.7°C 65.5°F18.6°C 69% Calm Calm 2.0 mph3.2 kmh 29.82 in1009.8 mb 0.00 in0.0 mm 0.00 in0.0 mm 0.00 in0.0 mm
03:12 AM 76.3°F24.6°C 65.8°F18.8°C 70% Calm Calm -- 29.82 in1009.8 mb 0.00 in0.0 mm 0.00 in0.0 mm 0.00 in0.0 mm
03:07 AM 75.9°F24.4°C 65.5°F18.6°C 70% 0.9 mph WNW1.4 kmh WNW 0.9 mph1.4 kmh 29.82 in1009.8 mb 0.00 in0.0 mm 0.00 in0.0 mm 0.00 in0.0 mm
03:02 AM 75.7°F24.3°C 65.3°F18.5°C 70% 2.0 mph WNW3.2 kmh WNW 2.0 mph3.2 kmh 29.82 in1009.8 mb 0.00 in0.0 mm 0.00 in0.0 mm 0.00 in0.0 mm
02:57 AM 75.7°F24.3°C 65.3°F18.5°C 70% 2.0 mph WNW3.2 kmh WNW 4.0 mph6.4 kmh 29.82 in1009.8 mb 0.00 in0.0 mm 0.00 in0.0 mm 0.00 in0.0 mm
02:52 AM 75.7°F24.3°C 65.3°F18.5°C 70% 2.9 mph NW4.7 kmh NW 4.9 mph7.9 kmh 29.82 in1009.8 mb 0.00 in0.0 mm 0.00 in0.0 mm 0.00 in0.0 mm
02:47 AM 75.7°F24.3°C 65.3°F18.5°C 70% 4.0 mph NW6.4 kmh NW 8.1 mph13.0 kmh 29.82 in1009.8 mb 0.00 in0.0 mm 0.00 in0.0 mm 0.00 in0.0 mm
02:42 AM 76.1°F24.5°C 65.1°F18.4°C 69% 2.9 mph N4.7 kmh N 6.0 mph9.7 kmh 29.82 in1009.8 mb 0.00 in0.0 mm 0.00 in0.0 mm 0.00 in0.0 mm
02:37 AM 76.8°F24.9°C 65.5°F18.6°C 68% 2.0 mph N3.2 kmh N 5.0 mph8.0 kmh 29.81 in1009.5 mb 0.00 in0.0 mm 0.00 in0.0 mm 0.00 in0.0 mm
02:32 AM 77.7°F25.4°C 66.4°F19.1°C 68% Calm Calm 4.0 mph6.4 kmh 29.81 in1009.5 mb 0.00 in0.0 mm 0.00 in0.0 mm 0.00 in0.0 mm
02:27 AM 77.7°F25.4°C 66.4°F19.1°C 68% Calm Calm 0.9 mph1.4 kmh 29.81 in1009.5 mb 0.00 in0.0 mm 0.00 in0.0 mm 0.00 in0.0 mm
02:22 AM 77.5°F25.3°C 66.2°F19.0°C 68% Calm Calm 2.9 mph4.7 kmh 29.81 in1009.5 mb 0.00 in0.0 mm 0.00 in0.0 mm 0.00 in0.0 mm
02:17 AM 77.4°F25.2°C 66.4°F19.1°C 69% Calm Calm 0.9 mph1.4 kmh 29.81 in1009.5 mb 0.00 in0.0 mm 0.00 in0.0 mm 0.00 in0.0 mm
02:12 AM 77.0°F25.0°C 66.0°F18.9°C 69% 0.9 mph NNW1.4 kmh NNW 0.9 mph1.4 kmh 29.81 in1009.5 mb 0.00 in0.0 mm 0.00 in0.0 mm 0.00 in0.0 mm
02:07 AM 77.0°F25.0°C 66.0°F18.9°C 69% 0.9 mph NNW1.4 kmh NNW 2.9 mph4.7 kmh 29.81 in1009.5 mb 0.00 in0.0 mm 0.00 in0.0 mm 0.00 in0.0 mm
02:02 AM 77.4°F25.2°C 66.4°F19.1°C 69% 0.9 mph N1.4 kmh N 2.9 mph4.7 kmh 29.82 in1009.8 mb 0.00 in0.0 mm 0.00 in0.0 mm 0.00 in0.0 mm
01:57 AM 77.5°F25.3°C 66.2°F19.0°C 68% 0.9 mph N1.4 kmh N 2.9 mph4.7 kmh 29.81 in1009.5 mb 0.00 in0.0 mm 0.00 in0.0 mm 0.00 in0.0 mm
01:52 AM 77.5°F25.3°C 66.2°F19.0°C 68% Calm Calm -- 29.81 in1009.5 mb 0.00 in0.0 mm 0.00 in0.0 mm 0.00 in0.0 mm
01:47 AM 77.5°F25.3°C 66.2°F19.0°C 68% Calm Calm -- 29.82 in1009.8 mb 0.00 in0.0 mm 0.00 in0.0 mm 0.00 in0.0 mm
01:42 AM 77.4°F25.2°C 66.0°F18.9°C 68% 0.9 mph WNW1.4 kmh WNW 0.9 mph1.4 kmh 29.82 in1009.8 mb 0.00 in0.0 mm 0.00 in0.0 mm 0.00 in0.0 mm
01:37 AM 77.4°F25.2°C 66.4°F19.1°C 69% 0.9 mph WNW1.4 kmh WNW 2.9 mph4.7 kmh 29.82 in1009.8 mb 0.00 in0.0 mm 0.00 in0.0 mm 0.00 in0.0 mm
01:32 AM 77.5°F25.3°C 66.2°F19.0°C 68% 0.9 mph WNW1.4 kmh WNW 4.0 mph6.4 kmh 29.82 in1009.8 mb 0.00 in0.0 mm 0.00 in0.0 mm 0.00 in0.0 mm
01:27 AM 77.9°F25.5°C 66.6°F19.2°C 68% 0.9 mph WNW1.4 kmh WNW 4.0 mph6.4 kmh 29.82 in1009.8 mb 0.00 in0.0 mm 0.00 in0.0 mm 0.00 in0.0 mm
01:22 AM 78.3°F25.7°C 66.4°F19.1°C 67% 0.9 mph NW1.4 kmh NW 2.9 mph4.7 kmh 29.82 in1009.8 mb 0.00 in0.0 mm 0.00 in0.0 mm 0.00 in0.0 mm
01:17 AM 78.4°F25.8°C 66.6°F19.2°C 67% 2.0 mph NNW3.2 kmh NNW 2.9 mph4.7 kmh 29.82 in1009.8 mb 0.00 in0.0 mm 0.00 in0.0 mm 0.00 in0.0 mm
01:12 AM 78.3°F25.7°C 66.7°F19.3°C 68% 2.9 mph W4.7 kmh W 4.0 mph6.4 kmh 29.82 in1009.8 mb 0.00 in0.0 mm 0.00 in0.0 mm 0.00 in0.0 mm
01:07 AM 77.7°F25.4°C 67.1°F19.5°C 70% 4.0 mph W6.4 kmh W 4.0 mph6.4 kmh 29.82 in1009.8 mb 0.00 in0.0 mm 0.00 in0.0 mm 0.00 in0.0 mm
01:02 AM 77.4°F25.2°C 67.6°F19.8°C 72% 4.0 mph WNW6.4 kmh WNW 10.1 mph16.3 kmh 29.82 in1009.8 mb 0.00 in0.0 mm 0.00 in0.0 mm 0.00 in0.0 mm
12:57 AM 77.2°F25.1°C 68.7°F20.4°C 75% 2.9 mph WSW4.7 kmh WSW 4.9 mph7.9 kmh 29.82 in1009.8 mb 0.00 in0.0 mm 0.00 in0.0 mm 0.00 in0.0 mm
12:52 AM 77.4°F25.2°C 69.3°F20.7°C 76% 2.9 mph WNW4.7 kmh WNW 8.1 mph13.0 kmh 29.82 in1009.8 mb 0.00 in0.0 mm 0.00 in0.0 mm 0.00 in0.0 mm
12:47 AM 77.7°F25.4°C 69.6°F20.9°C 76% 2.0 mph N3.2 kmh N 4.9 mph7.9 kmh 29.82 in1009.8 mb 0.00 in0.0 mm 0.00 in0.0 mm 0.00 in0.0 mm
12:42 AM 78.1°F25.6°C 69.4°F20.8°C 75% 2.0 mph NW3.2 kmh NW 4.0 mph6.4 kmh 29.82 in1009.8 mb 0.00 in0.0 mm 0.00 in0.0 mm 0.00 in0.0 mm
12:37 AM 78.6°F25.9°C 70.0°F21.1°C 75% 0.9 mph WNW1.4 kmh WNW 4.0 mph6.4 kmh 29.82 in1009.8 mb 0.00 in0.0 mm 0.00 in0.0 mm 0.00 in0.0 mm
12:32 AM 79.0°F26.1°C 70.3°F21.3°C 75% 0.9 mph NW1.4 kmh NW 2.0 mph3.2 kmh 29.82 in1009.8 mb 0.00 in0.0 mm 0.00 in0.0 mm 0.00 in0.0 mm
12:27 AM 79.2°F26.2°C 70.5°F21.4°C 75% 0.9 mph WNW1.4 kmh WNW 2.0 mph3.2 kmh 29.82 in1009.8 mb 0.00 in0.0 mm 0.00 in0.0 mm 0.00 in0.0 mm
12:22 AM 79.2°F26.2°C 70.5°F21.4°C 75% 0.9 mph WNW1.4 kmh WNW 2.9 mph4.7 kmh 29.82 in1009.8 mb 0.00 in0.0 mm 0.00 in0.0 mm 0.00 in0.0 mm
12:17 AM 79.2°F26.2°C 70.5°F21.4°C 75% Calm Calm 3.0 mph4.8 kmh 29.82 in1009.8 mb 0.00 in0.0 mm 0.00 in0.0 mm 0.00 in0.0 mm
12:12 AM 79.2°F26.2°C 70.9°F21.6°C 76% Calm Calm 1.0 mph1.6 kmh 29.83 in1010.2 mb 0.00 in0.0 mm 0.00 in0.0 mm 0.00 in0.0 mm
12:07 AM 79.2°F26.2°C 70.9°F21.6°C 76% Calm Calm -- 29.83 in1010.2 mb 0.00 in0.0 mm 0.00 in0.0 mm 0.00 in0.0 mm
12:02 AM 79.2°F26.2°C 70.9°F21.6°C 76% 0.9 mph NW1.4 kmh NW 0.9 mph1.4 kmh 29.83 in1010.2 mb 0.00 in0.0 mm 0.00 in0.0 mm 0.00 in0.0 mm